Time;durP1;ratioP1;P1;durP2;ratioP2;P2;SDS_P1;SDS_P2;PMS_P1;PMS_P2;Temp;Humidity;BMP_temperature;BMP_pressure;BME280_temperature;BME280_humidity;BME280_pressure;Samples;Min_cycle;Max_cycle;Signal;HPM_P1;HPM_P2
2022/06/11 00:01:09;;;;;;;6.40;6.10;;;;;;;15.95;100.00;100472.97;5051468;28;20024;-61
2022/06/11 00:03:36;;;;;;;6.05;5.85;;;;;;;15.92;100.00;100475.22;5032452;28;20033;-62
2022/06/11 00:06:03;;;;;;;6.40;6.10;;;;;;;15.91;100.00;100470.91;5051693;28;20072;-61
2022/06/11 00:08:29;;;;;;;6.60;6.30;;;;;;;15.85;100.00;100469.91;5045162;28;20025;-61
2022/06/11 00:10:54;;;;;;;6.20;5.97;;;;;;;15.88;100.00;100471.34;5051189;28;20476;-61
2022/06/11 00:13:22;;;;;;;6.30;6.05;;;;;;;15.81;100.00;100470.53;5051530;28;20480;-60
2022/06/11 00:15:49;;;;;;;6.55;6.25;;;;;;;15.85;100.00;100475.25;5051388;28;20116;-62
2022/06/11 00:18:15;;;;;;;6.40;6.10;;;;;;;15.82;100.00;100474.84;5041813;28;20040;-61
2022/06/11 00:20:41;;;;;;;6.30;6.00;;;;;;;15.78;100.00;100476.28;5050197;28;20131;-61
2022/06/11 00:23:07;;;;;;;6.40;6.10;;;;;;;15.82;100.00;100473.00;5037713;28;20032;-62
2022/06/11 00:25:34;;;;;;;6.20;6.00;;;;;;;15.83;100.00;100471.97;5040551;28;20044;-61
2022/06/11 00:28:01;;;;;;;6.15;5.95;;;;;;;15.74;100.00;100471.38;5043907;28;20025;-62
2022/06/11 00:30:27;;;;;;;6.43;6.13;;;;;;;15.71;100.00;100477.13;5042313;28;20029;-62
2022/06/11 00:32:55;;;;;;;6.50;6.20;;;;;;;15.66;100.00;100481.50;5045084;28;20033;-62
2022/06/11 00:35:21;;;;;;;6.40;6.10;;;;;;;15.59;100.00;100484.13;5046200;28;20044;-61
2022/06/11 00:37:47;;;;;;;6.20;6.00;;;;;;;15.60;100.00;100479.63;5039794;28;20037;-62
2022/06/11 00:40:16;;;;;;;5.95;5.75;;;;;;;15.53;100.00;100484.97;5053187;28;20027;-61
2022/06/11 00:42:42;;;;;;;6.70;6.40;;;;;;;15.64;100.00;100484.38;5037802;28;20016;-62
2022/06/11 00:45:17;;;;;;;6.40;6.10;;;;;;;15.64;100.00;100486.19;5046747;28;20427;-62
2022/06/11 00:47:44;;;;;;;;;;;;;;;15.63;100.00;100495.25;5054956;28;20114;-61
2022/06/11 00:50:20;;;;;;;6.20;6.00;;;;;;;15.60;100.00;100496.47;5054795;28;20391;-61
2022/06/11 00:52:47;;;;;;;6.00;5.80;;;;;;;15.58;100.00;100489.69;5054234;28;20061;-62
2022/06/11 00:55:26;;;;;;;6.10;5.90;;;;;;;15.56;100.00;100489.88;5054660;28;20789;-61
2022/06/11 00:57:57;;;;;;;6.10;5.90;;;;;;;15.46;100.00;100484.16;5054791;28;20486;-62
2022/06/11 01:00:40;;;;;;;6.10;5.90;;;;;;;15.53;100.00;100494.84;5051019;28;20396;-62
2022/06/11 01:03:06;;;;;;;6.72;6.43;;;;;;;15.48;100.00;100496.28;5056303;28;20016;-62
2022/06/11 01:05:37;;;;;;;6.10;5.90;;;;;;;15.44;100.00;100496.91;5053896;28;20079;-62
2022/06/11 01:08:15;;;;;;;6.40;6.10;;;;;;;15.44;100.00;100499.59;5041271;28;20079;-62
2022/06/11 01:10:49;;;;;;;6.60;6.30;;;;;;;15.33;100.00;100501.00;5049962;28;20036;-61
2022/06/11 01:13:38;;;;;;;6.35;6.05;;;;;;;15.35;100.00;100493.63;5043811;28;20060;-62
2022/06/11 01:16:34;;;;;;;6.50;6.20;;;;;;;15.33;100.00;100494.84;5041216;28;20486;-61
2022/06/11 01:19:31;;;;;;;6.40;6.10;;;;;;;15.33;100.00;100489.50;5033725;28;20116;-62
2022/06/11 01:22:14;;;;;;;6.20;5.97;;;;;;;15.19;100.00;100489.50;5034790;28;20104;-62
2022/06/11 01:25:10;;;;;;;6.35;6.05;;;;;;;15.17;100.00;100496.09;5050053;28;20025;-62
2022/06/11 01:27:44;;;;;;;6.25;6.00;;;;;;;15.19;100.00;100496.69;5053504;28;20036;-62
2022/06/11 01:30:24;;;;;;;6.50;6.20;;;;;;;15.15;100.00;100493.63;5042558;28;20025;-63
2022/06/11 01:33:09;;;;;;;6.03;5.82;;;;;;;15.18;100.00;100493.22;5053017;28;20028;-62
2022/06/11 01:35:59;;;;;;;6.10;5.90;;;;;;;15.15;100.00;100495.47;5039773;28;20028;-63
2022/06/11 01:38:35;;;;;;;6.22;6.00;;;;;;;15.04;100.00;100496.06;5052417;28;20029;-60
2022/06/11 01:41:19;;;;;;;6.03;5.82;;;;;;;15.10;100.00;100497.94;5054065;28;20031;-61
2022/06/11 01:43:48;;;;;;;6.00;5.80;;;;;;;15.07;100.00;100488.50;5052892;28;20603;-62
2022/06/11 01:46:20;;;;;;;6.07;5.88;;;;;;;15.08;100.00;100490.13;5052970;28;20036;-62
2022/06/11 01:48:57;;;;;;;6.00;5.80;;;;;;;15.03;100.00;100494.44;5053499;28;20412;-62
2022/06/11 01:52:07;;;;;;;6.10;5.90;;;;;;;14.99;100.00;100498.56;5047265;28;20025;-62
2022/06/11 01:55:08;;;;;;;6.05;5.85;;;;;;;15.07;100.00;100499.19;5063230;28;20478;-61
2022/06/11 01:57:36;;;;;;;6.10;5.90;;;;;;;15.02;100.00;100503.47;5001491;28;20034;-62
2022/06/11 02:00:08;;;;;;;6.10;5.90;;;;;;;15.08;100.00;100503.50;5037401;28;20443;-61
2022/06/11 02:02:47;;;;;;;6.00;5.80;;;;;;;15.05;100.00;100503.06;5051570;28;20025;-62
2022/06/11 02:05:16;;;;;;;6.50;6.20;;;;;;;15.11;100.00;100510.25;5046494;28;20112;-61
2022/06/11 02:08:08;;;;;;;6.70;6.40;;;;;;;15.10;100.00;100505.94;5035151;28;20398;-62
2022/06/11 02:10:50;;;;;;;6.60;6.30;;;;;;;15.14;100.00;100507.19;5043551;28;20024;-61
2022/06/11 02:13:36;;;;;;;6.18;5.97;;;;;;;15.08;100.00;100506.16;5053636;28;20480;-62
2022/06/11 02:16:24;;;;;;;6.50;6.20;;;;;;;15.14;100.00;100509.88;5040282;28;20032;-62
2022/06/11 02:18:52;;;;;;;6.28;6.05;;;;;;;15.04;100.00;100493.41;5047636;28;20400;-62
2022/06/11 02:21:24;;;;;;;6.20;6.00;;;;;;;15.13;100.00;100509.06;5053159;28;20035;-61
2022/06/11 02:24:13;;;;;;;6.10;5.90;;;;;;;15.18;100.00;100511.09;5053488;28;20384;-61
2022/06/11 02:26:47;;;;;;;6.10;5.90;;;;;;;15.26;100.00;100510.06;5052696;28;20044;-61
2022/06/11 02:29:17;;;;;;;6.45;6.15;;;;;;;15.23;100.00;100513.16;5053628;28;20385;-62
2022/06/11 02:31:49;;;;;;;6.22;6.00;;;;;;;15.22;100.00;100511.53;5052933;28;20057;-62
2022/06/11 02:34:17;;;;;;;6.03;5.82;;;;;;;15.30;100.00;100522.81;5052985;28;20388;-62
2022/06/11 02:37:09;;;;;;;6.22;6.03;;;;;;;15.44;100.00;100518.31;5049475;28;20444;-63
2022/06/11 02:39:37;;;;;;;5.90;5.70;;;;;;;15.46;100.00;100517.06;5049039;28;20029;-63
2022/06/11 02:42:06;;;;;;;6.38;6.07;;;;;;;15.67;100.00;100516.03;5052597;28;20071;-61
2022/06/11 02:44:32;;;;;;;6.40;6.10;;;;;;;16.11;100.00;100506.47;5052951;28;20036;-62
2022/06/11 02:46:58;;;;;;;6.07;5.88;;;;;;;16.58;100.00;100515.09;5050615;28;20029;-63
2022/06/11 02:49:26;;;;;;;6.10;5.90;;;;;;;17.03;100.00;100523.09;5045419;28;20059;-62
2022/06/11 02:51:54;;;;;;;6.20;5.97;;;;;;;17.45;100.00;100520.72;5038797;28;20435;-62
2022/06/11 02:54:21;;;;;;;6.60;6.30;;;;;;;17.80;100.00;100523.72;5052525;28;20488;-62
2022/06/11 02:56:49;;;;;;;6.43;6.13;;;;;;;18.31;100.00;100520.66;5050103;28;20053;-62
2022/06/11 02:59:15;;;;;;;6.30;6.07;;;;;;;19.24;100.00;100530.09;5052684;28;20049;-62
2022/06/11 03:01:42;;;;;;;6.50;6.20;;;;;;;20.74;100.00;100526.69;5051528;28;20021;-62
2022/06/11 03:04:07;;;;;;;6.50;6.20;;;;;;;21.40;99.15;100521.63;5052326;28;20028;-63
2022/06/11 03:06:34;;;;;;;6.65;6.35;;;;;;;22.43;91.59;100525.47;5045412;28;20102;-62
2022/06/11 03:09:00;;;;;;;6.57;6.28;;;;;;;22.87;88.88;100530.84;5051122;28;20032;-62
2022/06/11 03:11:28;;;;;;;6.50;6.20;;;;;;;23.91;83.03;100543.03;5043129;28;20032;-62
2022/06/11 03:13:53;;;;;;;6.60;6.30;;;;;;;23.97;81.23;100531.94;5052424;28;20033;-63
2022/06/11 03:16:19;;;;;;;6.38;6.07;;;;;;;24.62;77.14;100539.84;5051908;28;20542;-62
2022/06/11 03:18:45;;;;;;;6.90;6.60;;;;;;;25.32;73.98;100530.97;5051920;28;20075;-62
2022/06/11 03:21:11;;;;;;;6.80;6.50;;;;;;;25.78;70.94;100535.53;5049167;28;20044;-62
2022/06/11 03:23:36;;;;;;;6.82;6.53;;;;;;;26.14;68.79;100533.53;5050015;28;20052;-62
2022/06/11 03:26:02;;;;;;;6.78;6.47;;;;;;;26.09;68.63;100530.84;5043912;28;20029;-62
2022/06/11 03:28:29;;;;;;;6.82;6.53;;;;;;;26.84;66.66;100538.91;5035019;28;20029;-62
2022/06/11 03:30:55;;;;;;;6.65;6.35;;;;;;;27.24;63.70;100535.91;5051319;28;20075;-62
2022/06/11 03:33:22;;;;;;;6.70;6.40;;;;;;;27.50;62.57;100541.13;5051862;28;20029;-62
2022/06/11 03:35:49;;;;;;;6.80;6.50;;;;;;;28.14;60.63;100542.66;5055061;28;20784;-62
2022/06/11 03:38:15;;;;;;;6.93;6.63;;;;;;;28.47;59.10;100540.09;5051590;28;20033;-62
2022/06/11 03:40:41;;;;;;;6.70;6.40;;;;;;;28.46;58.45;100543.91;5051859;28;20035;-61
2022/06/11 03:43:06;;;;;;;7.10;6.80;;;;;;;28.53;56.97;100544.38;5051260;28;20033;-62
2022/06/11 03:45:32;;;;;;;6.90;6.60;;;;;;;28.92;56.85;100551.47;5045912;28;20510;-62
2022/06/11 03:47:58;;;;;;;6.55;6.25;;;;;;;29.03;55.30;100542.84;5050401;28;20076;-61
2022/06/11 03:50:33;;;;;;;7.10;6.80;;;;;;;29.61;54.21;100553.38;5043248;28;20026;-61
2022/06/11 03:52:59;;;;;;;7.15;6.85;;;;;;;30.04;51.86;100550.38;5041781;28;20036;-61
2022/06/11 03:55:25;;;;;;;7.05;6.75;;;;;;;30.10;51.83;100546.41;5049162;28;20498;-61
2022/06/11 03:57:52;;;;;;;6.90;6.60;;;;;;;29.47;53.47;100544.28;5049734;28;20028;-61
2022/06/11 04:01:14;;;;;;;6.90;6.60;;;;;;;28.62;56.98;100550.78;5050494;28;20037;-61
2022/06/11 04:03:07;;;;;;;6.90;6.60;;;;;;;29.27;52.76;100548.19;5051423;28;20025;-61
2022/06/11 04:05:33;;;;;;;6.70;6.40;;;;;;;28.68;55.68;100552.34;5051784;28;20467;-62
2022/06/11 04:07:58;;;;;;;6.80;6.50;;;;;;;29.65;51.87;100546.16;5040029;28;20033;-62
2022/06/11 04:10:24;;;;;;;6.63;6.32;;;;;;;29.85;51.07;100542.25;5051811;28;20032;-62
2022/06/11 04:12:50;;;;;;;6.88;6.57;;;;;;;29.96;50.62;100548.31;5040652;28;20028;-62
2022/06/11 04:15:15;;;;;;;6.88;6.57;;;;;;;30.20;49.25;100545.41;5055071;28;20463;-62
2022/06/11 04:17:41;;;;;;;7.10;6.80;;;;;;;31.32;47.37;100556.59;5054781;28;20037;-62
2022/06/11 04:20:07;;;;;;;7.00;6.70;;;;;;;30.90;46.57;100553.19;5041425;28;20488;-62
2022/06/11 04:22:32;;;;;;;6.97;6.68;;;;;;;31.24;45.04;100555.41;5055557;28;20122;-62
2022/06/11 04:24:58;;;;;;;7.07;6.78;;;;;;;30.96;45.50;100560.16;5054275;28;20488;-62
2022/06/11 04:27:24;;;;;;;7.05;6.75;;;;;;;31.23;44.77;100553.78;5057710;28;20021;-62
2022/06/11 04:29:53;;;;;;;6.93;6.63;;;;;;;31.77;43.98;100556.50;5055235;28;20025;-62
2022/06/11 04:32:21;;;;;;;6.93;6.63;;;;;;;31.66;42.80;100553.25;5053692;28;20035;-62
2022/06/11 04:34:48;;;;;;;7.35;7.05;;;;;;;32.15;42.19;100556.84;5054155;28;20021;-63
2022/06/11 04:37:16;;;;;;;7.30;7.00;;;;;;;32.06;41.38;100572.47;5051446;28;20103;-62
2022/06/11 04:39:45;;;;;;;6.90;6.60;;;;;;;31.99;41.88;100567.44;5052861;28;20053;-63
2022/06/11 04:42:11;;;;;;;6.97;6.68;;;;;;;32.28;41.49;100572.38;5039638;28;20353;-63
2022/06/11 04:44:39;;;;;;;7.03;6.72;;;;;;;32.39;40.92;100572.91;5051854;28;20037;-63
2022/06/11 04:47:06;;;;;;;7.10;6.80;;;;;;;32.37;40.91;100575.16;5054518;28;20039;-63
2022/06/11 04:49:32;;;;;;;7.10;6.80;;;;;;;31.64;42.05;100569.19;5050416;28;20139;-62
2022/06/11 04:51:57;;;;;;;7.30;7.00;;;;;;;32.22;41.38;100583.81;5053902;28;20141;-62
2022/06/11 04:54:23;;;;;;;7.20;6.90;;;;;;;32.73;39.51;100581.19;5054901;28;20043;-62
2022/06/11 04:56:48;;;;;;;7.25;6.95;;;;;;;32.60;40.16;100582.16;5052913;28;20104;-63
2022/06/11 04:59:14;;;;;;;7.22;6.93;;;;;;;32.44;40.71;100583.75;5053772;28;20120;-63
2022/06/11 05:01:41;;;;;;;7.20;6.90;;;;;;;32.81;39.71;100598.00;5053529;28;20029;-62
2022/06/11 05:04:08;;;;;;;7.05;6.75;;;;;;;32.87;40.08;100594.81;5040577;28;20452;-63
2022/06/11 05:06:39;;;;;;;7.10;6.80;;;;;;;33.47;38.68;100595.94;5052376;28;20031;-63
2022/06/11 05:09:06;;;;;;;7.00;6.70;;;;;;;33.85;38.34;100595.97;5039638;28;20493;-62
2022/06/11 05:11:31;;;;;;;7.38;7.07;;;;;;;33.60;38.54;100588.63;5048313;28;20128;-62
2022/06/11 05:13:57;;;;;;;7.10;6.80;;;;;;;34.07;37.68;100578.44;5053302;28;20111;-62
2022/06/11 05:16:23;;;;;;;7.25;6.95;;;;;;;34.17;37.45;100591.84;5054356;28;20057;-62
2022/06/11 05:18:48;;;;;;;7.25;6.95;;;;;;;34.29;37.50;100589.16;5055869;28;20392;-62
2022/06/11 05:21:15;;;;;;;7.20;6.90;;;;;;;34.31;37.38;100589.66;5054141;28;20494;-63
2022/06/11 05:23:41;;;;;;;7.22;6.93;;;;;;;34.65;36.64;100585.06;5054333;28;20396;-63
2022/06/11 05:26:09;;;;;;;7.10;6.80;;;;;;;34.94;36.51;100586.19;5050164;28;20083;-62
2022/06/11 05:28:35;;;;;;;7.10;6.80;;;;;;;34.99;36.74;100584.03;5037855;28;20623;-62
2022/06/11 05:31:02;;;;;;;7.30;7.00;;;;;;;34.94;35.79;100595.25;5053936;28;20108;-64
2022/06/11 05:33:28;;;;;;;7.25;6.95;;;;;;;35.47;35.13;100590.06;5044790;28;20033;-63
2022/06/11 05:35:54;;;;;;;7.20;6.90;;;;;;;33.75;37.25;100591.66;5047786;28;20031;-63
2022/06/11 05:38:24;;;;;;;7.07;6.78;;;;;;;33.46;39.47;100588.81;5049207;28;20021;-63
2022/06/11 05:40:51;;;;;;;6.70;6.40;;;;;;;31.50;42.61;100579.44;5040664;28;20061;-62
2022/06/11 05:43:18;;;;;;;6.90;6.60;;;;;;;30.70;45.03;100587.34;5049014;28;20111;-62
2022/06/11 05:45:49;;;;;;;6.90;6.60;;;;;;;33.35;39.79;100591.09;5041260;28;20033;-62
2022/06/11 05:48:17;;;;;;;7.05;6.75;;;;;;;34.75;37.08;100592.97;5053749;28;20072;-63
2022/06/11 05:50:47;;;;;;;7.10;6.80;;;;;;;34.89;37.30;100596.25;5053228;28;20571;-62
2022/06/11 05:53:16;;;;;;;7.20;6.90;;;;;;;35.26;36.05;100592.88;5066250;28;20025;-63
2022/06/11 05:55:44;;;;;;;7.40;7.10;;;;;;;34.94;36.58;100589.75;5053537;28;20029;-63
2022/06/11 05:58:14;;;;;;;7.50;7.20;;;;;;;36.03;34.27;100591.25;5053153;28;20028;-63
2022/06/11 06:00:40;;;;;;;7.28;6.97;;;;;;;35.05;36.38;100599.22;5038887;28;20504;-63
2022/06/11 06:03:06;;;;;;;7.40;7.10;;;;;;;35.67;35.42;100595.53;5053379;28;20029;-62
2022/06/11 06:05:32;;;;;;;7.32;7.03;;;;;;;35.58;35.96;100599.53;5053580;28;20021;-62
2022/06/11 06:07:58;;;;;;;7.15;6.85;;;;;;;35.67;35.39;100603.81;5051066;28;20037;-63
2022/06/11 06:10:23;;;;;;;7.30;7.00;;;;;;;36.93;33.35;100603.13;5056617;28;20036;-63
2022/06/11 06:12:50;;;;;;;7.28;6.97;;;;;;;35.82;35.14;100594.06;5049419;28;20021;-63
2022/06/11 06:15:25;;;;;;;7.22;6.93;;;;;;;37.07;32.70;100609.88;5049588;28;20113;-63
2022/06/11 06:17:52;;;;;;;7.30;7.00;;;;;;;36.42;33.91;100605.50;5048083;28;20102;-62
2022/06/11 06:20:19;;;;;;;7.28;6.97;;;;;;;37.23;32.96;100609.91;5042542;28;20629;-62
2022/06/11 06:22:46;;;;;;;7.25;6.95;;;;;;;37.73;31.50;100614.06;5052003;28;20494;-63
2022/06/11 06:25:15;;;;;;;7.25;6.95;;;;;;;37.77;31.20;100614.16;5053163;28;20017;-62
2022/06/11 06:27:40;;;;;;;7.25;6.95;;;;;;;36.66;32.90;100611.03;5046312;28;20103;-63
2022/06/11 06:30:06;;;;;;;6.82;6.53;;;;;;;35.11;35.43;100608.09;5052842;28;20116;-62
2022/06/11 06:32:32;;;;;;;6.95;6.65;;;;;;;34.24;37.37;100597.63;5051922;28;20496;-63
2022/06/11 06:34:58;;;;;;;6.97;6.68;;;;;;;34.84;36.92;100601.16;5052691;28;20605;-63
2022/06/11 06:37:23;;;;;;;6.97;6.68;;;;;;;33.38;39.72;100601.44;5041909;28;20098;-63
2022/06/11 06:39:49;;;;;;;6.82;6.53;;;;;;;32.62;41.42;100601.88;5034076;28;20551;-62
2022/06/11 06:42:14;;;;;;;6.72;6.43;;;;;;;31.78;42.98;100602.03;5046019;28;20064;-63
2022/06/11 06:44:40;;;;;;;6.90;6.60;;;;;;;32.36;42.06;100601.00;5041060;28;20446;-62
2022/06/11 06:47:06;;;;;;;6.90;6.60;;;;;;;32.85;41.00;100599.84;5047129;28;20467;-62
2022/06/11 06:49:31;;;;;;;7.10;6.80;;;;;;;35.16;36.71;100599.59;5045348;28;20136;-61
2022/06/11 06:51:57;;;;;;;7.00;6.70;;;;;;;36.86;33.52;100600.97;5045928;28;20267;-63
2022/06/11 06:54:22;;;;;;;7.20;6.90;;;;;;;36.57;34.27;100599.28;5049668;28;20032;-63
2022/06/11 06:56:48;;;;;;;7.30;7.00;;;;;;;37.15;32.60;100599.81;5039725;28;20052;-63
2022/06/11 06:59:13;;;;;;;7.07;6.78;;;;;;;35.56;35.35;100590.81;5037705;28;20044;-63
2022/06/11 07:01:39;;;;;;;7.05;6.75;;;;;;;36.77;32.88;100600.28;5049131;28;20554;-63
2022/06/11 07:04:05;;;;;;;7.32;7.03;;;;;;;37.00;32.78;100589.50;5052376;28;20036;-63
2022/06/11 07:06:33;;;;;;;7.20;6.90;;;;;;;36.97;32.65;100599.31;5051215;28;20560;-63
2022/06/11 07:08:59;;;;;;;7.30;7.00;;;;;;;37.30;32.47;100603.78;5052148;28;20033;-63
2022/06/11 07:11:25;;;;;;;7.30;7.00;;;;;;;38.12;31.72;100595.69;5045377;28;20036;-62
2022/06/11 07:13:50;;;;;;;7.05;6.75;;;;;;;38.15;31.47;100596.94;5052087;28;20041;-64
2022/06/11 07:16:22;;;;;;;7.40;7.10;;;;;;;37.82;31.30;100600.06;5051349;28;20108;-61
2022/06/11 07:18:53;;;;;;;7.18;6.88;;;;;;;37.77;31.17;100600.31;5058364;28;20036;-63
2022/06/11 07:21:22;;;;;;;7.18;6.88;;;;;;;36.95;32.86;100596.13;5052124;28;20024;-63
2022/06/11 07:24:14;;;;;;;7.30;7.00;;;;;;;38.01;31.48;100585.50;5049368;28;20040;-62
2022/06/11 07:26:44;;;;;;;7.25;6.95;;;;;;;37.13;32.31;100587.50;5051906;28;20017;-63
2022/06/11 07:29:16;;;;;;;7.05;6.75;;;;;;;38.07;30.91;100579.34;5051732;28;20569;-64
2022/06/11 07:31:44;;;;;;;7.43;7.13;;;;;;;36.14;33.29;100573.06;5049345;28;20025;-64
2022/06/11 07:34:11;;;;;;;7.22;6.93;;;;;;;38.68;30.10;100580.72;5052581;28;20017;-62
2022/06/11 07:36:37;;;;;;;7.40;7.10;;;;;;;37.29;31.10;100580.84;5039850;28;20370;-63
2022/06/11 07:39:02;;;;;;;6.97;6.68;;;;;;;36.70;31.84;100581.50;5051339;28;20021;-63
2022/06/11 07:41:28;;;;;;;6.82;6.53;;;;;;;36.92;31.62;100573.88;5050484;28;20075;-62
2022/06/11 07:43:55;;;;;;;6.80;6.50;;;;;;;33.03;39.20;100575.09;5049133;28;20048;-63
2022/06/11 07:46:21;;;;;;;6.88;6.57;;;;;;;34.70;36.18;100568.34;5040035;28;20392;-62
2022/06/11 07:48:48;;;;;;;6.80;6.50;;;;;;;34.22;36.86;100569.59;5046401;28;20129;-62
2022/06/11 07:51:18;;;;;;;7.30;7.00;;;;;;;36.67;32.53;100568.41;5047020;28;20035;-63
2022/06/11 07:53:47;;;;;;;6.80;6.50;;;;;;;32.96;38.79;100567.34;5050761;28;20492;-62
2022/06/11 07:56:14;;;;;;;6.90;6.60;;;;;;;35.28;34.46;100569.31;5049535;28;20025;-63
2022/06/11 07:58:40;;;;;;;6.90;6.60;;;;;;;34.92;34.81;100569.19;5049048;28;20035;-64
2022/06/11 08:01:06;;;;;;;7.00;6.70;;;;;;;34.65;35.23;100568.53;5042187;28;20097;-62
2022/06/11 08:03:32;;;;;;;7.00;6.70;;;;;;;28.34;48.17;100575.16;5044017;28;20033;-63
2022/06/11 08:05:59;;;;;;;6.82;6.53;;;;;;;29.34;44.65;100561.47;5034553;28;20029;-63
2022/06/11 08:08:25;;;;;;;6.90;6.60;;;;;;;27.18;50.10;100575.19;5046872;28;20025;-64
2022/06/11 08:10:51;;;;;;;7.15;6.85;;;;;;;30.61;43.24;100571.91;5051012;28;20060;-62
2022/06/11 08:13:16;;;;;;;6.72;6.43;;;;;;;31.55;41.15;100560.91;5049323;28;20452;-63
2022/06/11 08:15:44;;;;;;;7.03;6.72;;;;;;;28.75;48.25;100568.34;5043581;28;20079;-62
2022/06/11 08:18:10;;;;;;;6.80;6.50;;;;;;;31.80;41.03;100559.47;5046992;28;20036;-62
2022/06/11 08:20:36;;;;;;;6.90;6.60;;;;;;;32.64;39.38;100565.84;5049209;28;20072;-62
2022/06/11 08:23:03;;;;;;;6.80;6.50;;;;;;;32.04;39.79;100563.75;5042922;28;20021;-64
2022/06/11 08:25:29;;;;;;;6.90;6.60;;;;;;;31.59;41.10;100555.63;5045282;28;20492;-62
2022/06/11 08:27:56;;;;;;;6.90;6.60;;;;;;;29.17;46.51;100554.63;5039456;28;20039;-62
2022/06/11 08:30:23;;;;;;;6.90;6.60;;;;;;;30.80;44.14;100562.47;5048190;28;20401;-62
2022/06/11 08:32:49;;;;;;;6.70;6.40;;;;;;;30.93;41.84;100558.06;5037573;28;20041;-61
2022/06/11 08:35:18;;;;;;;7.00;6.70;;;;;;;32.81;38.55;100565.03;5046414;28;20029;-62
2022/06/11 08:37:44;;;;;;;7.10;6.80;;;;;;;29.82;44.00;100555.69;5039608;28;20033;-62
2022/06/11 08:40:39;;;;;;;7.00;6.70;;;;;;;28.07;50.92;100561.28;5052174;28;20032;-61
2022/06/11 08:43:41;;;;;;;6.80;6.50;;;;;;;27.69;51.36;100563.88;5054495;28;20400;-62
2022/06/11 08:46:16;;;;;;;6.70;6.40;;;;;;;28.76;48.61;100559.88;5002726;28;20056;-62
2022/06/11 08:48:42;;;;;;;6.85;6.55;;;;;;;28.34;49.40;100560.72;5052191;28;20061;-63
2022/06/11 08:51:10;;;;;;;6.80;6.50;;;;;;;28.30;48.28;100555.03;5049758;28;20043;-61
2022/06/11 08:53:38;;;;;;;6.72;6.43;;;;;;;26.32;54.55;100553.88;5054280;28;20495;-61
2022/06/11 08:56:07;;;;;;;6.80;6.50;;;;;;;26.75;53.28;100546.06;5053457;28;20037;-61
2022/06/11 08:59:25;;;;;;;6.82;6.53;;;;;;;27.13;51.93;100545.25;5055115;28;20099;-60
2022/06/11 09:02:10;;;;;;;6.63;6.32;;;;;;;26.43;53.95;100552.75;5046232;28;20061;-62
2022/06/11 09:05:23;;;;;;;6.88;6.57;;;;;;;26.07;57.49;100539.28;5066434;28;20116;-60
2022/06/11 09:08:27;;;;;;;7.10;6.80;;;;;;;27.00;53.54;100532.25;4971787;28;20089;-62
2022/06/11 09:11:07;;;;;;;6.97;6.68;;;;;;;26.64;53.68;100537.13;5052265;28;20387;-61
2022/06/11 09:14:03;;;;;;;6.70;6.40;;;;;;;27.16;52.61;100541.97;5060992;28;20063;-61
2022/06/11 09:16:41;;;;;;;6.70;6.40;;;;;;;28.46;49.54;100544.72;5059935;28;20044;-62
2022/06/11 09:19:19;;;;;;;6.75;6.45;;;;;;;28.91;48.03;100545.22;5053555;28;20025;-61
2022/06/11 09:22:14;;;;;;;6.80;6.50;;;;;;;26.55;53.99;100545.06;5046229;28;20484;-61
2022/06/11 09:25:20;;;;;;;6.90;6.60;;;;;;;25.98;55.33;100546.38;5046305;28;20037;-61
2022/06/11 09:27:56;;;;;;;6.85;6.55;;;;;;;26.09;55.99;100542.53;5056881;28;20089;-62
2022/06/11 09:30:35;;;;;;;6.80;6.50;;;;;;;25.51;56.55;100542.09;5054517;28;20172;-62
2022/06/11 09:33:18;;;;;;;6.78;6.47;;;;;;;25.92;55.55;100536.59;5061646;28;20083;-62
2022/06/11 09:36:01;;;;;;;7.03;6.72;;;;;;;26.83;51.02;100532.66;5044815;28;20025;-61
2022/06/11 09:39:02;;;;;;;6.73;6.43;;;;;;;27.35;48.47;100535.84;5052567;28;20029;-62
2022/06/11 09:41:51;;;;;;;7.03;6.72;;;;;;;27.65;47.56;100526.53;5061004;28;20480;-62
2022/06/11 09:44:37;;;;;;;6.78;6.47;;;;;;;27.49;46.96;100525.88;5050501;28;20178;-61
2022/06/11 09:47:12;;;;;;;6.72;6.43;;;;;;;27.33;47.43;100516.25;5038133;28;20032;-59
2022/06/11 09:49:55;;;;;;;7.10;6.80;;;;;;;25.82;51.39;100528.47;5059069;28;20028;-61
2022/06/11 09:52:29;;;;;;;6.97;6.68;;;;;;;25.75;51.74;100536.09;5050479;28;20035;-60
2022/06/11 09:55:08;;;;;;;6.63;6.32;;;;;;;25.67;52.04;100526.56;5062495;28;20052;-61
2022/06/11 09:57:55;;;;;;;6.80;6.50;;;;;;;26.50;49.73;100512.44;5050335;28;20058;-61
2022/06/11 10:00:33;;;;;;;6.80;6.50;;;;;;;26.80;49.07;100510.63;5048360;28;20074;-62
2022/06/11 10:05:57;;;;;;;6.80;6.50;;;;;;;26.91;48.41;100504.03;5052173;28;20040;-63
2022/06/11 10:08:25;;;;;;;6.68;6.38;;;;;;;27.80;45.95;100505.41;5047321;28;20041;-62
2022/06/11 10:10:52;;;;;;;6.47;6.18;;;;;;;27.23;48.39;100495.34;5060769;28;20111;-61
2022/06/11 10:13:33;;;;;;;6.63;6.32;;;;;;;27.06;48.66;100484.06;5045944;28;20029;-62
2022/06/11 10:16:08;;;;;;;6.70;6.40;;;;;;;27.11;47.14;100482.13;5035511;28;20504;-61
2022/06/11 10:18:36;;;;;;;6.68;6.38;;;;;;;26.56;47.60;100495.00;5048182;28;20079;-62
2022/06/11 10:21:19;;;;;;;7.00;6.70;;;;;;;27.01;46.07;100482.16;5066240;28;20433;-63
2022/06/11 10:23:53;;;;;;;6.88;6.57;;;;;;;27.38;44.86;100491.66;5053036;28;20437;-62
2022/06/11 10:26:44;;;;;;;6.88;6.57;;;;;;;27.05;46.61;100464.19;5048292;28;20047;-62
2022/06/11 10:29:13;;;;;;;6.70;6.40;;;;;;;27.43;46.08;100461.66;5053638;28;20039;-62
2022/06/11 10:31:46;;;;;;;6.55;6.25;;;;;;;27.32;44.71;100460.13;5054018;28;20393;-62
2022/06/11 10:34:19;;;;;;;6.75;6.45;;;;;;;28.01;43.18;100451.44;5057655;28;20033;-62
2022/06/11 10:36:57;;;;;;;6.80;6.50;;;;;;;27.59;42.52;100465.00;5052602;28;20420;-63
2022/06/11 10:39:40;;;;;;;6.55;6.25;;;;;;;27.24;42.57;100456.91;5059385;28;20120;-62
2022/06/11 10:42:14;;;;;;;6.50;6.20;;;;;;;27.48;42.60;100458.88;5053360;28;20029;-64
2022/06/11 10:44:53;;;;;;;6.68;6.38;;;;;;;27.83;43.12;100452.22;5055574;28;20095;-63
2022/06/11 10:47:24;;;;;;;7.13;6.82;;;;;;;26.67;45.73;100449.50;5041349;28;20037;-63
2022/06/11 10:49:57;;;;;;;6.60;6.30;;;;;;;27.68;43.90;100446.94;5043827;28;20111;-66
2022/06/11 10:53:03;;;;;;;6.75;6.45;;;;;;;27.10;45.47;100441.53;5040513;28;20033;-63
2022/06/11 10:56:11;;;;;;;6.60;6.30;;;;;;;26.75;44.52;100426.31;4985113;28;20120;-63
2022/06/11 10:58:45;;;;;;;6.80;6.50;;;;;;;27.62;42.79;100427.09;5047161;28;20033;-62
2022/06/11 11:01:34;;;;;;;6.72;6.43;;;;;;;27.49;42.80;100435.97;5046374;28;20148;-63
2022/06/11 11:04:24;;;;;;;6.60;6.30;;;;;;;26.92;44.07;100426.69;5053459;28;20082;-63
2022/06/11 11:07:17;;;;;;;7.07;6.78;;;;;;;27.58;43.00;100428.78;5051123;28;20558;-62
2022/06/11 11:09:44;;;;;;;6.47;6.18;;;;;;;27.89;42.07;100428.44;5048843;28;20082;-62
2022/06/11 11:12:37;;;;;;;6.57;6.28;;;;;;;27.45;41.45;100413.94;5051954;28;20110;-63
2022/06/11 11:15:16;;;;;;;6.75;6.45;;;;;;;27.74;42.28;100411.16;5049139;28;20033;-64
2022/06/11 11:18:08;;;;;;;6.70;6.40;;;;;;;27.11;42.98;100408.59;5064064;28;20028;-64
2022/06/11 11:20:41;;;;;;;6.63;6.32;;;;;;;27.83;43.25;100415.97;5053386;28;20697;-64
2022/06/11 11:23:10;;;;;;;6.65;6.35;;;;;;;28.21;42.51;100406.72;5046792;28;20032;-62
2022/06/11 11:25:40;;;;;;;6.50;6.20;;;;;;;27.01;44.82;100400.47;5060436;28;20107;-63
2022/06/11 11:28:15;;;;;;;6.80;6.50;;;;;;;27.72;44.27;100410.66;5059936;28;20046;-62
2022/06/11 11:30:40;;;;;;;6.57;6.28;;;;;;;26.97;44.60;100418.50;5055394;28;20028;-64
2022/06/11 11:33:28;;;;;;;6.70;6.40;;;;;;;27.34;43.88;100409.72;5052178;28;20078;-64
2022/06/11 11:36:13;;;;;;;6.60;6.30;;;;;;;27.84;43.21;100402.06;5042867;28;20024;-63
2022/06/11 11:38:40;;;;;;;6.60;6.30;;;;;;;26.80;44.50;100404.47;5045977;28;20033;-63
2022/06/11 11:41:06;;;;;;;6.50;6.20;;;;;;;27.60;43.75;100404.75;5054994;28;20477;-64
2022/06/11 11:43:38;;;;;;;6.50;6.20;;;;;;;27.11;43.38;100415.94;5057803;28;20484;-63
2022/06/11 11:46:09;;;;;;;6.80;6.50;;;;;;;27.07;40.21;100412.97;5051674;28;20023;-63
2022/06/11 11:48:48;;;;;;;6.50;6.20;;;;;;;28.36;40.20;100405.72;5054526;28;20106;-63
2022/06/11 11:51:35;;;;;;;6.45;6.15;;;;;;;28.51;41.02;100401.94;5052998;28;20032;-63